sensor_id;sensor_type;location;lat;lon;timestamp;P1;durP1;ratioP1;P2;durP2;ratioP2
65162;SDS011;51751;55.714;37.436;2023-01-19T00:01:56;18.75;;;9.18;;
65162;SDS011;51751;55.714;37.436;2023-01-19T00:04:21;18.58;;;9.43;;
65162;SDS011;51751;55.714;37.436;2023-01-19T00:06:47;20.35;;;9.68;;
65162;SDS011;51751;55.714;37.436;2023-01-19T00:09:31;19.05;;;9.52;;
65162;SDS011;51751;55.714;37.436;2023-01-19T00:12:06;18.20;;;8.40;;
65162;SDS011;51751;55.714;37.436;2023-01-19T00:14:32;20.83;;;9.23;;
65162;SDS011;51751;55.714;37.436;2023-01-19T00:16:58;13.98;;;7.72;;
65162;SDS011;51751;55.714;37.436;2023-01-19T00:19:26;15.05;;;8.88;;
65162;SDS011;51751;55.714;37.436;2023-01-19T00:21:52;17.85;;;8.60;;
65162;SDS011;51751;55.714;37.436;2023-01-19T00:24:18;18.17;;;8.25;;
65162;SDS011;51751;55.714;37.436;2023-01-19T00:26:44;15.57;;;7.80;;
65162;SDS011;51751;55.714;37.436;2023-01-19T00:29:11;11.13;;;6.70;;
65162;SDS011;51751;55.714;37.436;2023-01-19T00:31:38;14.48;;;7.20;;
65162;SDS011;51751;55.714;37.436;2023-01-19T00:34:04;14.85;;;7.93;;
65162;SDS011;51751;55.714;37.436;2023-01-19T00:36:31;14.13;;;7.85;;
65162;SDS011;51751;55.714;37.436;2023-01-19T00:38:57;14.88;;;7.88;;
65162;SDS011;51751;55.714;37.436;2023-01-19T00:41:23;12.55;;;6.97;;
65162;SDS011;51751;55.714;37.436;2023-01-19T00:44:08;15.38;;;7.35;;
65162;SDS011;51751;55.714;37.436;2023-01-19T00:46:35;13.43;;;7.10;;
65162;SDS011;51751;55.714;37.436;2023-01-19T00:49:01;12.35;;;6.65;;
65162;SDS011;51751;55.714;37.436;2023-01-19T00:51:27;16.70;;;8.38;;
65162;SDS011;51751;55.714;37.436;2023-01-19T00:53:53;13.60;;;7.35;;
65162;SDS011;51751;55.714;37.436;2023-01-19T00:56:19;16.77;;;7.97;;
65162;SDS011;51751;55.714;37.436;2023-01-19T00:58:45;15.40;;;7.72;;
65162;SDS011;51751;55.714;37.436;2023-01-19T01:01:11;13.18;;;7.68;;
65162;SDS011;51751;55.714;37.436;2023-01-19T01:04:16;14.13;;;7.55;;
65162;SDS011;51751;55.714;37.436;2023-01-19T01:06:41;15.07;;;8.13;;
65162;SDS011;51751;55.714;37.436;2023-01-19T01:09:07;14.27;;;7.18;;
65162;SDS011;51751;55.714;37.436;2023-01-19T01:11:40;15.18;;;8.02;;
65162;SDS011;51751;55.714;37.436;2023-01-19T01:14:06;13.95;;;7.75;;
65162;SDS011;51751;55.714;37.436;2023-01-19T01:16:33;16.70;;;8.50;;
65162;SDS011;51751;55.714;37.436;2023-01-19T01:18:59;15.80;;;7.60;;
65162;SDS011;51751;55.714;37.436;2023-01-19T01:21:25;15.85;;;8.10;;
65162;SDS011;51751;55.714;37.436;2023-01-19T01:23:51;16.67;;;8.20;;
65162;SDS011;51751;55.714;37.436;2023-01-19T01:26:17;17.60;;;8.27;;
65162;SDS011;51751;55.714;37.436;2023-01-19T01:28:42;20.67;;;8.48;;
65162;SDS011;51751;55.714;37.436;2023-01-19T01:31:08;14.93;;;8.45;;
65162;SDS011;51751;55.714;37.436;2023-01-19T01:33:34;14.20;;;8.13;;
65162;SDS011;51751;55.714;37.436;2023-01-19T01:36:00;13.25;;;8.18;;
65162;SDS011;51751;55.714;37.436;2023-01-19T01:38:27;18.20;;;8.65;;
65162;SDS011;51751;55.714;37.436;2023-01-19T01:40:53;15.88;;;8.60;;
65162;SDS011;51751;55.714;37.436;2023-01-19T01:43:56;16.52;;;8.00;;
65162;SDS011;51751;55.714;37.436;2023-01-19T01:46:23;13.88;;;7.82;;
65162;SDS011;51751;55.714;37.436;2023-01-19T01:51:35;19.42;;;8.80;;
65162;SDS011;51751;55.714;37.436;2023-01-19T01:54:04;16.33;;;8.48;;
65162;SDS011;51751;55.714;37.436;2023-01-19T01:56:48;17.88;;;9.23;;
65162;SDS011;51751;55.714;37.436;2023-01-19T01:59:22;16.55;;;8.93;;
65162;SDS011;51751;55.714;37.436;2023-01-19T02:02:00;18.00;;;8.63;;
65162;SDS011;51751;55.714;37.436;2023-01-19T02:04:49;12.73;;;7.25;;
65162;SDS011;51751;55.714;37.436;2023-01-19T02:07:19;18.85;;;8.27;;
65162;SDS011;51751;55.714;37.436;2023-01-19T02:10:07;15.52;;;8.27;;
65162;SDS011;51751;55.714;37.436;2023-01-19T02:12:52;15.63;;;8.25;;
65162;SDS011;51751;55.714;37.436;2023-01-19T02:15:37;14.75;;;7.40;;
65162;SDS011;51751;55.714;37.436;2023-01-19T02:18:03;14.00;;;7.43;;
65162;SDS011;51751;55.714;37.436;2023-01-19T02:20:29;15.52;;;8.50;;
65162;SDS011;51751;55.714;37.436;2023-01-19T02:22:56;15.38;;;8.27;;
65162;SDS011;51751;55.714;37.436;2023-01-19T02:25:25;17.70;;;8.68;;
65162;SDS011;51751;55.714;37.436;2023-01-19T02:27:51;17.52;;;8.27;;
65162;SDS011;51751;55.714;37.436;2023-01-19T02:30:17;17.30;;;8.70;;
65162;SDS011;51751;55.714;37.436;2023-01-19T02:32:43;18.55;;;8.95;;
65162;SDS011;51751;55.714;37.436;2023-01-19T02:35:10;14.60;;;8.23;;
65162;SDS011;51751;55.714;37.436;2023-01-19T02:37:36;15.63;;;7.82;;
65162;SDS011;51751;55.714;37.436;2023-01-19T02:40:07;15.63;;;8.60;;
65162;SDS011;51751;55.714;37.436;2023-01-19T02:42:39;15.27;;;8.52;;
65162;SDS011;51751;55.714;37.436;2023-01-19T02:45:08;16.92;;;8.68;;
65162;SDS011;51751;55.714;37.436;2023-01-19T02:47:43;17.08;;;7.82;;
65162;SDS011;51751;55.714;37.436;2023-01-19T03:02:09;16.67;;;8.60;;
65162;SDS011;51751;55.714;37.436;2023-01-19T03:07:33;16.00;;;8.50;;
65162;SDS011;51751;55.714;37.436;2023-01-19T03:15:42;15.32;;;8.23;;
65162;SDS011;51751;55.714;37.436;2023-01-19T03:18:12;12.30;;;7.00;;
65162;SDS011;51751;55.714;37.436;2023-01-19T03:20:39;13.27;;;7.18;;
65162;SDS011;51751;55.714;37.436;2023-01-19T03:23:07;14.30;;;7.50;;
65162;SDS011;51751;55.714;37.436;2023-01-19T03:25:36;14.30;;;7.07;;
65162;SDS011;51751;55.714;37.436;2023-01-19T03:28:05;14.00;;;8.10;;
65162;SDS011;51751;55.714;37.436;2023-01-19T03:30:32;13.13;;;7.53;;
65162;SDS011;51751;55.714;37.436;2023-01-19T03:33:22;13.85;;;8.10;;
65162;SDS011;51751;55.714;37.436;2023-01-19T03:35:52;15.60;;;7.78;;
65162;SDS011;51751;55.714;37.436;2023-01-19T03:38:24;13.18;;;7.47;;
65162;SDS011;51751;55.714;37.436;2023-01-19T03:40:54;16.05;;;7.95;;
65162;SDS011;51751;55.714;37.436;2023-01-19T03:43:23;13.93;;;7.50;;
65162;SDS011;51751;55.714;37.436;2023-01-19T03:45:50;15.98;;;8.38;;
65162;SDS011;51751;55.714;37.436;2023-01-19T03:48:35;13.35;;;7.60;;
65162;SDS011;51751;55.714;37.436;2023-01-19T03:51:21;12.88;;;7.45;;
65162;SDS011;51751;55.714;37.436;2023-01-19T03:53:47;13.75;;;8.23;;
65162;SDS011;51751;55.714;37.436;2023-01-19T03:56:21;14.75;;;7.07;;
65162;SDS011;51751;55.714;37.436;2023-01-19T03:58:49;10.93;;;5.40;;
65162;SDS011;51751;55.714;37.436;2023-01-19T04:01:15;13.45;;;7.80;;
65162;SDS011;51751;55.714;37.436;2023-01-19T04:04:00;9.95;;;6.43;;
65162;SDS011;51751;55.714;37.436;2023-01-19T04:06:26;11.35;;;6.75;;
65162;SDS011;51751;55.714;37.436;2023-01-19T04:08:52;13.82;;;9.98;;
65162;SDS011;51751;55.714;37.436;2023-01-19T04:11:19;16.58;;;11.18;;
65162;SDS011;51751;55.714;37.436;2023-01-19T04:13:45;22.83;;;15.30;;
65162;SDS011;51751;55.714;37.436;2023-01-19T04:16:11;27.45;;;17.27;;
65162;SDS011;51751;55.714;37.436;2023-01-19T04:18:37;22.17;;;13.30;;
65162;SDS011;51751;55.714;37.436;2023-01-19T04:21:03;15.63;;;8.38;;
65162;SDS011;51751;55.714;37.436;2023-01-19T04:23:30;13.02;;;7.70;;
65162;SDS011;51751;55.714;37.436;2023-01-19T04:25:57;14.30;;;8.07;;
65162;SDS011;51751;55.714;37.436;2023-01-19T04:28:23;12.50;;;7.15;;
65162;SDS011;51751;55.714;37.436;2023-01-19T04:30:49;15.35;;;7.47;;
65162;SDS011;51751;55.714;37.436;2023-01-19T04:33:17;13.93;;;7.47;;
65162;SDS011;51751;55.714;37.436;2023-01-19T04:35:43;26.60;;;14.73;;
65162;SDS011;51751;55.714;37.436;2023-01-19T04:38:10;15.27;;;9.20;;
65162;SDS011;51751;55.714;37.436;2023-01-19T04:40:36;14.73;;;8.98;;
65162;SDS011;51751;55.714;37.436;2023-01-19T04:43:01;13.02;;;7.43;;
65162;SDS011;51751;55.714;37.436;2023-01-19T04:45:46;17.75;;;10.20;;
65162;SDS011;51751;55.714;37.436;2023-01-19T04:48:12;21.00;;;12.50;;
65162;SDS011;51751;55.714;37.436;2023-01-19T04:50:38;19.27;;;11.85;;
65162;SDS011;51751;55.714;37.436;2023-01-19T04:53:06;26.00;;;16.23;;
65162;SDS011;51751;55.714;37.436;2023-01-19T04:55:32;27.88;;;17.08;;
65162;SDS011;51751;55.714;37.436;2023-01-19T04:57:57;29.10;;;16.73;;
65162;SDS011;51751;55.714;37.436;2023-01-19T05:00:24;25.63;;;15.52;;
65162;SDS011;51751;55.714;37.436;2023-01-19T05:02:51;15.77;;;8.20;;
65162;SDS011;51751;55.714;37.436;2023-01-19T05:05:17;19.25;;;11.57;;
65162;SDS011;51751;55.714;37.436;2023-01-19T05:07:43;17.02;;;9.13;;
65162;SDS011;51751;55.714;37.436;2023-01-19T05:10:09;22.08;;;13.35;;
65162;SDS011;51751;55.714;37.436;2023-01-19T05:12:37;21.35;;;13.15;;
65162;SDS011;51751;55.714;37.436;2023-01-19T05:15:04;22.30;;;12.98;;
65162;SDS011;51751;55.714;37.436;2023-01-19T05:17:32;29.48;;;17.80;;
65162;SDS011;51751;55.714;37.436;2023-01-19T05:19:58;45.22;;;27.23;;
65162;SDS011;51751;55.714;37.436;2023-01-19T05:22:24;47.33;;;29.85;;
65162;SDS011;51751;55.714;37.436;2023-01-19T05:24:50;27.15;;;16.60;;
65162;SDS011;51751;55.714;37.436;2023-01-19T05:27:16;24.63;;;13.48;;
65162;SDS011;51751;55.714;37.436;2023-01-19T05:29:42;29.60;;;18.33;;
65162;SDS011;51751;55.714;37.436;2023-01-19T05:32:08;23.80;;;14.35;;
65162;SDS011;51751;55.714;37.436;2023-01-19T05:34:34;21.00;;;14.13;;
65162;SDS011;51751;55.714;37.436;2023-01-19T05:37:18;28.58;;;14.63;;
65162;SDS011;51751;55.714;37.436;2023-01-19T05:39:44;45.97;;;27.30;;
65162;SDS011;51751;55.714;37.436;2023-01-19T05:42:10;29.30;;;16.45;;
65162;SDS011;51751;55.714;37.436;2023-01-19T05:44:35;29.98;;;20.10;;
65162;SDS011;51751;55.714;37.436;2023-01-19T05:47:01;57.45;;;38.67;;
65162;SDS011;51751;55.714;37.436;2023-01-19T05:49:27;41.30;;;26.08;;
65162;SDS011;51751;55.714;37.436;2023-01-19T05:51:53;26.50;;;14.52;;
65162;SDS011;51751;55.714;37.436;2023-01-19T05:54:19;21.08;;;13.60;;
65162;SDS011;51751;55.714;37.436;2023-01-19T05:56:45;30.20;;;19.45;;
65162;SDS011;51751;55.714;37.436;2023-01-19T05:59:11;38.20;;;25.00;;
65162;SDS011;51751;55.714;37.436;2023-01-19T06:01:37;36.58;;;23.50;;
65162;SDS011;51751;55.714;37.436;2023-01-19T06:04:03;27.55;;;17.55;;
65162;SDS011;51751;55.714;37.436;2023-01-19T06:06:29;33.90;;;20.27;;
65162;SDS011;51751;55.714;37.436;2023-01-19T06:08:56;46.15;;;29.02;;
65162;SDS011;51751;55.714;37.436;2023-01-19T06:11:21;68.68;;;38.33;;
65162;SDS011;51751;55.714;37.436;2023-01-19T06:13:49;30.30;;;17.77;;
65162;SDS011;51751;55.714;37.436;2023-01-19T06:16:15;37.65;;;22.40;;
65162;SDS011;51751;55.714;37.436;2023-01-19T06:18:41;56.60;;;33.08;;
65162;SDS011;51751;55.714;37.436;2023-01-19T06:21:07;44.42;;;25.95;;
65162;SDS011;51751;55.714;37.436;2023-01-19T06:23:34;29.65;;;13.80;;
65162;SDS011;51751;55.714;37.436;2023-01-19T06:26:00;62.70;;;33.47;;
65162;SDS011;51751;55.714;37.436;2023-01-19T06:28:26;63.80;;;33.88;;
65162;SDS011;51751;55.714;37.436;2023-01-19T06:30:53;81.10;;;41.25;;
65162;SDS011;51751;55.714;37.436;2023-01-19T06:33:19;53.47;;;30.33;;
65162;SDS011;51751;55.714;37.436;2023-01-19T06:35:46;56.67;;;28.98;;
65162;SDS011;51751;55.714;37.436;2023-01-19T06:38:12;55.60;;;30.58;;
65162;SDS011;51751;55.714;37.436;2023-01-19T06:40:39;35.85;;;20.52;;
65162;SDS011;51751;55.714;37.436;2023-01-19T06:43:05;58.30;;;33.53;;
65162;SDS011;51751;55.714;37.436;2023-01-19T06:45:32;59.20;;;32.25;;
65162;SDS011;51751;55.714;37.436;2023-01-19T06:47:59;68.07;;;37.28;;
65162;SDS011;51751;55.714;37.436;2023-01-19T06:50:24;60.80;;;33.13;;
65162;SDS011;51751;55.714;37.436;2023-01-19T06:52:51;84.60;;;46.42;;
65162;SDS011;51751;55.714;37.436;2023-01-19T06:55:17;71.05;;;40.63;;
65162;SDS011;51751;55.714;37.436;2023-01-19T06:57:43;45.75;;;26.67;;
65162;SDS011;51751;55.714;37.436;2023-01-19T07:00:10;40.88;;;23.55;;
65162;SDS011;51751;55.714;37.436;2023-01-19T07:02:39;31.73;;;15.23;;
65162;SDS011;51751;55.714;37.436;2023-01-19T07:05:07;57.00;;;33.10;;
65162;SDS011;51751;55.714;37.436;2023-01-19T07:07:34;56.17;;;28.85;;
65162;SDS011;51751;55.714;37.436;2023-01-19T07:10:00;30.92;;;12.77;;
65162;SDS011;51751;55.714;37.436;2023-01-19T07:12:26;35.05;;;14.77;;
65162;SDS011;51751;55.714;37.436;2023-01-19T07:14:52;22.27;;;10.93;;
65162;SDS011;51751;55.714;37.436;2023-01-19T07:17:17;17.80;;;10.68;;
65162;SDS011;51751;55.714;37.436;2023-01-19T07:19:44;21.17;;;11.57;;
65162;SDS011;51751;55.714;37.436;2023-01-19T07:22:10;18.83;;;11.25;;
65162;SDS011;51751;55.714;37.436;2023-01-19T07:24:55;20.75;;;11.43;;
65162;SDS011;51751;55.714;37.436;2023-01-19T07:27:20;17.08;;;9.38;;
65162;SDS011;51751;55.714;37.436;2023-01-19T07:29:46;20.13;;;11.05;;
65162;SDS011;51751;55.714;37.436;2023-01-19T07:32:12;20.65;;;10.55;;
65162;SDS011;51751;55.714;37.436;2023-01-19T07:34:39;22.73;;;11.02;;
65162;SDS011;51751;55.714;37.436;2023-01-19T07:37:04;26.48;;;12.50;;
65162;SDS011;51751;55.714;37.436;2023-01-19T07:39:30;18.95;;;11.43;;
65162;SDS011;51751;55.714;37.436;2023-01-19T07:41:56;45.55;;;27.85;;
65162;SDS011;51751;55.714;37.436;2023-01-19T07:44:22;26.23;;;14.43;;
65162;SDS011;51751;55.714;37.436;2023-01-19T07:46:48;21.98;;;10.90;;
65162;SDS011;51751;55.714;37.436;2023-01-19T07:49:15;20.40;;;10.80;;
65162;SDS011;51751;55.714;37.436;2023-01-19T07:51:41;23.52;;;12.82;;
65162;SDS011;51751;55.714;37.436;2023-01-19T07:54:08;26.30;;;13.25;;
65162;SDS011;51751;55.714;37.436;2023-01-19T07:56:34;24.92;;;13.35;;
65162;SDS011;51751;55.714;37.436;2023-01-19T07:58:59;22.02;;;11.35;;
65162;SDS011;51751;55.714;37.436;2023-01-19T08:01:25;20.63;;;12.55;;
65162;SDS011;51751;55.714;37.436;2023-01-19T08:03:51;17.33;;;10.13;;
65162;SDS011;51751;55.714;37.436;2023-01-19T08:08:51;23.98;;;12.13;;
65162;SDS011;51751;55.714;37.436;2023-01-19T08:11:17;22.23;;;13.07;;
65162;SDS011;51751;55.714;37.436;2023-01-19T08:14:01;18.20;;;9.82;;
65162;SDS011;51751;55.714;37.436;2023-01-19T08:16:27;23.85;;;11.93;;
65162;SDS011;51751;55.714;37.436;2023-01-19T08:18:53;22.05;;;11.50;;
65162;SDS011;51751;55.714;37.436;2023-01-19T08:21:19;22.88;;;11.80;;
65162;SDS011;51751;55.714;37.436;2023-01-19T08:23:52;23.63;;;13.75;;
65162;SDS011;51751;55.714;37.436;2023-01-19T08:28:54;24.95;;;12.95;;
65162;SDS011;51751;55.714;37.436;2023-01-19T08:31:22;25.35;;;13.23;;
65162;SDS011;51751;55.714;37.436;2023-01-19T08:34:06;22.80;;;12.15;;
65162;SDS011;51751;55.714;37.436;2023-01-19T08:36:32;20.10;;;11.05;;
65162;SDS011;51751;55.714;37.436;2023-01-19T08:38:58;21.17;;;12.80;;
65162;SDS011;51751;55.714;37.436;2023-01-19T08:41:25;30.20;;;13.50;;
65162;SDS011;51751;55.714;37.436;2023-01-19T08:43:51;19.27;;;11.02;;
65162;SDS011;51751;55.714;37.436;2023-01-19T08:46:17;29.83;;;12.18;;
65162;SDS011;51751;55.714;37.436;2023-01-19T08:48:45;29.13;;;13.15;;
65162;SDS011;51751;55.714;37.436;2023-01-19T08:51:31;28.75;;;12.60;;
65162;SDS011;51751;55.714;37.436;2023-01-19T08:53:57;23.63;;;12.82;;
65162;SDS011;51751;55.714;37.436;2023-01-19T08:56:23;25.08;;;12.80;;
65162;SDS011;51751;55.714;37.436;2023-01-19T08:58:49;22.55;;;11.55;;
65162;SDS011;51751;55.714;37.436;2023-01-19T09:01:15;25.95;;;11.13;;
65162;SDS011;51751;55.714;37.436;2023-01-19T09:03:45;26.30;;;11.38;;
65162;SDS011;51751;55.714;37.436;2023-01-19T09:06:12;26.45;;;11.80;;
65162;SDS011;51751;55.714;37.436;2023-01-19T09:08:39;24.30;;;11.60;;
65162;SDS011;51751;55.714;37.436;2023-01-19T09:11:08;29.25;;;13.02;;
65162;SDS011;51751;55.714;37.436;2023-01-19T09:13:35;24.13;;;11.02;;
65162;SDS011;51751;55.714;37.436;2023-01-19T09:16:02;27.88;;;13.38;;
65162;SDS011;51751;55.714;37.436;2023-01-19T09:18:28;35.53;;;13.32;;
65162;SDS011;51751;55.714;37.436;2023-01-19T09:20:55;29.70;;;13.50;;
65162;SDS011;51751;55.714;37.436;2023-01-19T09:23:21;25.70;;;11.65;;
65162;SDS011;51751;55.714;37.436;2023-01-19T09:25:48;18.55;;;9.68;;
65162;SDS011;51751;55.714;37.436;2023-01-19T09:28:38;23.15;;;11.18;;
65162;SDS011;51751;55.714;37.436;2023-01-19T09:31:05;23.23;;;11.18;;
65162;SDS011;51751;55.714;37.436;2023-01-19T09:33:32;25.30;;;12.55;;
65162;SDS011;51751;55.714;37.436;2023-01-19T09:35:58;26.92;;;11.30;;
65162;SDS011;51751;55.714;37.436;2023-01-19T09:38:24;28.48;;;12.00;;
65162;SDS011;51751;55.714;37.436;2023-01-19T09:40:54;27.95;;;12.55;;
65162;SDS011;51751;55.714;37.436;2023-01-19T09:46:16;28.08;;;12.85;;
65162;SDS011;51751;55.714;37.436;2023-01-19T09:48:46;24.60;;;12.25;;
65162;SDS011;51751;55.714;37.436;2023-01-19T09:51:18;25.67;;;11.88;;
65162;SDS011;51751;55.714;37.436;2023-01-19T09:54:19;27.80;;;13.88;;
65162;SDS011;51751;55.714;37.436;2023-01-19T09:56:48;19.63;;;10.93;;
65162;SDS011;51751;55.714;37.436;2023-01-19T10:10:08;32.90;;;14.27;;
65162;SDS011;51751;55.714;37.436;2023-01-19T10:13:09;22.27;;;11.32;;
65162;SDS011;51751;55.714;37.436;2023-01-19T10:16:01;30.60;;;13.68;;
65162;SDS011;51751;55.714;37.436;2023-01-19T10:18:52;22.50;;;11.43;;
65162;SDS011;51751;55.714;37.436;2023-01-19T10:21:34;32.08;;;13.25;;
65162;SDS011;51751;55.714;37.436;2023-01-19T10:24:04;28.98;;;13.13;;
65162;SDS011;51751;55.714;37.436;2023-01-19T10:26:36;37.67;;;16.13;;
65162;SDS011;51751;55.714;37.436;2023-01-19T10:29:06;32.05;;;14.20;;
65162;SDS011;51751;55.714;37.436;2023-01-19T10:31:39;32.05;;;13.70;;
65162;SDS011;51751;55.714;37.436;2023-01-19T10:34:08;31.15;;;12.15;;
65162;SDS011;51751;55.714;37.436;2023-01-19T10:37:11;33.25;;;16.27;;
65162;SDS011;51751;55.714;37.436;2023-01-19T10:39:40;41.22;;;16.50;;
65162;SDS011;51751;55.714;37.436;2023-01-19T10:42:08;22.40;;;10.73;;
65162;SDS011;51751;55.714;37.436;2023-01-19T10:44:36;25.17;;;12.98;;
65162;SDS011;51751;55.714;37.436;2023-01-19T10:47:03;25.88;;;12.98;;
65162;SDS011;51751;55.714;37.436;2023-01-19T10:52:00;40.00;;;19.60;;
65162;SDS011;51751;55.714;37.436;2023-01-19T10:54:27;36.80;;;19.30;;
65162;SDS011;51751;55.714;37.436;2023-01-19T10:57:00;47.22;;;24.73;;
65162;SDS011;51751;55.714;37.436;2023-01-19T10:59:47;47.40;;;24.13;;
65162;SDS011;51751;55.714;37.436;2023-01-19T11:02:31;48.15;;;23.45;;
65162;SDS011;51751;55.714;37.436;2023-01-19T11:05:01;28.63;;;14.43;;
65162;SDS011;51751;55.714;37.436;2023-01-19T11:07:50;45.47;;;19.58;;
65162;SDS011;51751;55.714;37.436;2023-01-19T11:12:44;41.90;;;17.48;;
65162;SDS011;51751;55.714;37.436;2023-01-19T11:15:20;31.52;;;14.85;;
65162;SDS011;51751;55.714;37.436;2023-01-19T11:17:48;36.90;;;15.43;;
65162;SDS011;51751;55.714;37.436;2023-01-19T11:20:38;32.33;;;14.25;;
65162;SDS011;51751;55.714;37.436;2023-01-19T11:25:39;47.78;;;19.00;;
65162;SDS011;51751;55.714;37.436;2023-01-19T11:28:05;29.25;;;13.70;;
65162;SDS011;51751;55.714;37.436;2023-01-19T11:30:52;31.95;;;15.20;;
65162;SDS011;51751;55.714;37.436;2023-01-19T11:33:47;36.15;;;15.02;;
65162;SDS011;51751;55.714;37.436;2023-01-19T11:36:19;26.35;;;13.27;;
65162;SDS011;51751;55.714;37.436;2023-01-19T11:38:58;40.53;;;17.40;;
65162;SDS011;51751;55.714;37.436;2023-01-19T11:47:02;25.85;;;13.32;;
65162;SDS011;51751;55.714;37.436;2023-01-19T11:49:41;31.30;;;13.73;;
65162;SDS011;51751;55.714;37.436;2023-01-19T11:52:42;28.48;;;13.05;;
65162;SDS011;51751;55.714;37.436;2023-01-19T11:58:08;33.47;;;14.40;;
65162;SDS011;51751;55.714;37.436;2023-01-19T12:00:43;27.50;;;12.30;;
65162;SDS011;51751;55.714;37.436;2023-01-19T12:03:28;27.42;;;12.73;;
65162;SDS011;51751;55.714;37.436;2023-01-19T12:06:15;28.08;;;12.73;;
65162;SDS011;51751;55.714;37.436;2023-01-19T12:08:46;25.23;;;12.75;;
65162;SDS011;51751;55.714;37.436;2023-01-19T12:11:18;27.25;;;12.98;;
65162;SDS011;51751;55.714;37.436;2023-01-19T12:13:48;27.10;;;13.43;;
65162;SDS011;51751;55.714;37.436;2023-01-19T12:18:44;27.00;;;11.82;;
65162;SDS011;51751;55.714;37.436;2023-01-19T12:21:13;29.60;;;12.50;;
65162;SDS011;51751;55.714;37.436;2023-01-19T12:26:36;24.27;;;13.25;;
65162;SDS011;51751;55.714;37.436;2023-01-19T12:29:04;27.23;;;12.43;;
65162;SDS011;51751;55.714;37.436;2023-01-19T12:31:38;33.07;;;12.70;;
65162;SDS011;51751;55.714;37.436;2023-01-19T12:39:53;30.00;;;12.48;;
65162;SDS011;51751;55.714;37.436;2023-01-19T12:42:43;30.05;;;12.55;;
65162;SDS011;51751;55.714;37.436;2023-01-19T12:47:38;29.05;;;12.77;;
65162;SDS011;51751;55.714;37.436;2023-01-19T12:50:05;30.05;;;12.43;;
65162;SDS011;51751;55.714;37.436;2023-01-19T12:52:33;27.70;;;12.23;;
65162;SDS011;51751;55.714;37.436;2023-01-19T12:55:14;29.90;;;12.13;;
65162;SDS011;51751;55.714;37.436;2023-01-19T13:02:54;23.08;;;11.68;;
65162;SDS011;51751;55.714;37.436;2023-01-19T13:05:22;23.35;;;11.80;;
65162;SDS011;51751;55.714;37.436;2023-01-19T13:13:35;23.95;;;12.38;;
65162;SDS011;51751;55.714;37.436;2023-01-19T13:18:52;24.95;;;12.40;;
65162;SDS011;51751;55.714;37.436;2023-01-19T13:21:37;26.17;;;11.57;;
65162;SDS011;51751;55.714;37.436;2023-01-19T13:24:06;27.60;;;12.02;;
65162;SDS011;51751;55.714;37.436;2023-01-19T13:26:36;30.17;;;12.68;;
65162;SDS011;51751;55.714;37.436;2023-01-19T13:31:39;27.98;;;12.18;;
65162;SDS011;51751;55.714;37.436;2023-01-19T13:34:11;22.98;;;11.30;;
65162;SDS011;51751;55.714;37.436;2023-01-19T13:36:40;28.02;;;11.45;;
65162;SDS011;51751;55.714;37.436;2023-01-19T13:39:34;23.58;;;11.63;;
65162;SDS011;51751;55.714;37.436;2023-01-19T13:42:14;28.83;;;11.88;;
65162;SDS011;51751;55.714;37.436;2023-01-19T13:45:06;25.50;;;12.18;;
65162;SDS011;51751;55.714;37.436;2023-01-19T13:47:42;29.33;;;12.68;;
65162;SDS011;51751;55.714;37.436;2023-01-19T13:50:20;28.65;;;12.90;;
65162;SDS011;51751;55.714;37.436;2023-01-19T13:52:47;27.67;;;13.10;;
65162;SDS011;51751;55.714;37.436;2023-01-19T13:55:15;30.20;;;13.15;;
65162;SDS011;51751;55.714;37.436;2023-01-19T13:57:43;32.72;;;13.85;;
65162;SDS011;51751;55.714;37.436;2023-01-19T14:02:39;31.60;;;13.98;;
65162;SDS011;51751;55.714;37.436;2023-01-19T14:07:44;30.60;;;13.90;;
65162;SDS011;51751;55.714;37.436;2023-01-19T14:10:14;33.92;;;13.70;;
65162;SDS011;51751;55.714;37.436;2023-01-19T14:12:43;31.30;;;14.13;;
65162;SDS011;51751;55.714;37.436;2023-01-19T14:15:12;35.92;;;14.43;;
65162;SDS011;51751;55.714;37.436;2023-01-19T14:17:39;38.13;;;13.07;;
65162;SDS011;51751;55.714;37.436;2023-01-19T14:20:06;36.13;;;13.95;;
65162;SDS011;51751;55.714;37.436;2023-01-19T14:22:51;31.27;;;14.07;;
65162;SDS011;51751;55.714;37.436;2023-01-19T14:25:24;33.38;;;14.20;;
65162;SDS011;51751;55.714;37.436;2023-01-19T14:31:20;30.38;;;13.55;;
65162;SDS011;51751;55.714;37.436;2023-01-19T14:33:49;27.38;;;13.60;;
65162;SDS011;51751;55.714;37.436;2023-01-19T14:36:32;30.42;;;13.68;;
65162;SDS011;51751;55.714;37.436;2023-01-19T14:39:00;31.10;;;13.40;;
65162;SDS011;51751;55.714;37.436;2023-01-19T14:41:43;30.77;;;13.35;;
65162;SDS011;51751;55.714;37.436;2023-01-19T14:44:33;29.17;;;12.70;;
65162;SDS011;51751;55.714;37.436;2023-01-19T14:47:01;29.65;;;11.55;;
65162;SDS011;51751;55.714;37.436;2023-01-19T14:49:29;27.05;;;12.63;;
65162;SDS011;51751;55.714;37.436;2023-01-19T14:52:47;28.92;;;10.88;;
65162;SDS011;51751;55.714;37.436;2023-01-19T14:54:59;24.52;;;12.35;;
65162;SDS011;51751;55.714;37.436;2023-01-19T14:57:28;26.38;;;12.80;;
65162;SDS011;51751;55.714;37.436;2023-01-19T14:59:54;21.40;;;11.32;;
65162;SDS011;51751;55.714;37.436;2023-01-19T15:02:20;22.23;;;11.32;;
65162;SDS011;51751;55.714;37.436;2023-01-19T15:04:46;27.65;;;12.10;;
65162;SDS011;51751;55.714;37.436;2023-01-19T15:07:22;24.10;;;11.60;;
65162;SDS011;51751;55.714;37.436;2023-01-19T15:10:14;22.42;;;10.93;;
65162;SDS011;51751;55.714;37.436;2023-01-19T15:12:43;19.08;;;9.90;;
65162;SDS011;51751;55.714;37.436;2023-01-19T15:15:19;24.33;;;11.20;;
65162;SDS011;51751;55.714;37.436;2023-01-19T15:17:50;20.02;;;10.27;;
65162;SDS011;51751;55.714;37.436;2023-01-19T15:20:19;19.65;;;10.27;;
65162;SDS011;51751;55.714;37.436;2023-01-19T15:22:46;18.95;;;9.88;;
65162;SDS011;51751;55.714;37.436;2023-01-19T15:25:16;18.60;;;10.32;;
65162;SDS011;51751;55.714;37.436;2023-01-19T15:27:46;19.98;;;9.95;;
65162;SDS011;51751;55.714;37.436;2023-01-19T15:30:25;17.00;;;9.82;;
65162;SDS011;51751;55.714;37.436;2023-01-19T15:32:54;19.67;;;10.27;;
65162;SDS011;51751;55.714;37.436;2023-01-19T15:35:20;19.60;;;10.52;;
65162;SDS011;51751;55.714;37.436;2023-01-19T15:37:55;19.98;;;10.35;;
65162;SDS011;51751;55.714;37.436;2023-01-19T15:40:22;18.90;;;10.07;;
65162;SDS011;51751;55.714;37.436;2023-01-19T15:42:49;18.25;;;9.90;;
65162;SDS011;51751;55.714;37.436;2023-01-19T15:48:03;17.42;;;9.73;;
65162;SDS011;51751;55.714;37.436;2023-01-19T15:50:30;22.35;;;10.40;;
65162;SDS011;51751;55.714;37.436;2023-01-19T15:52:56;18.67;;;10.50;;
65162;SDS011;51751;55.714;37.436;2023-01-19T15:55:22;23.30;;;10.57;;
65162;SDS011;51751;55.714;37.436;2023-01-19T15:57:48;18.45;;;10.55;;
65162;SDS011;51751;55.714;37.436;2023-01-19T16:00:14;20.15;;;10.80;;
65162;SDS011;51751;55.714;37.436;2023-01-19T16:02:41;18.80;;;10.13;;
65162;SDS011;51751;55.714;37.436;2023-01-19T16:05:25;22.58;;;10.48;;
65162;SDS011;51751;55.714;37.436;2023-01-19T16:07:51;15.57;;;9.13;;
65162;SDS011;51751;55.714;37.436;2023-01-19T16:10:16;16.83;;;8.95;;
65162;SDS011;51751;55.714;37.436;2023-01-19T16:12:43;15.23;;;9.48;;